createdAt,value
2023-08-07T00:00:11.496Z,14.50
2023-08-07T00:02:38.598Z,14.50
2023-08-07T00:05:06.719Z,14.50
2023-08-07T00:07:33.737Z,14.50
2023-08-07T00:10:02.269Z,14.60
2023-08-07T00:12:30.671Z,14.60
2023-08-07T00:14:57.660Z,14.60
2023-08-07T00:17:24.714Z,14.60
2023-08-07T00:19:51.877Z,14.60
2023-08-07T00:22:18.900Z,14.50
2023-08-07T00:24:45.915Z,14.60
2023-08-07T00:27:13.415Z,14.60
2023-08-07T00:29:41.902Z,14.60
2023-08-07T00:32:09.738Z,14.60
2023-08-07T00:34:36.706Z,14.60
2023-08-07T00:37:04.126Z,14.60
2023-08-07T00:39:31.127Z,14.50
2023-08-07T00:41:58.306Z,14.60
2023-08-07T00:44:25.661Z,14.60
2023-08-07T00:46:55.187Z,14.60
2023-08-07T00:49:22.881Z,14.60
2023-08-07T00:51:50.200Z,14.60
2023-08-07T00:54:20.595Z,14.60
2023-08-07T00:56:47.998Z,14.60
2023-08-07T00:59:16.039Z,14.60
2023-08-07T01:01:43.324Z,14.50
2023-08-07T01:04:12.002Z,14.50
2023-08-07T01:06:38.991Z,14.50
2023-08-07T01:09:06.055Z,14.50
2023-08-07T01:11:40.836Z,14.50
2023-08-07T01:14:14.719Z,14.50
2023-08-07T01:16:46.925Z,14.50
2023-08-07T01:19:24.585Z,14.50
2023-08-07T01:22:06.484Z,14.50
2023-08-07T01:24:33.942Z,14.50
2023-08-07T01:27:11.123Z,14.50
2023-08-07T01:29:45.369Z,14.50
2023-08-07T01:32:17.389Z,14.50
2023-08-07T01:34:46.284Z,14.60
2023-08-07T01:37:15.143Z,14.50
2023-08-07T01:39:43.257Z,14.50
2023-08-07T01:42:11.151Z,14.50
2023-08-07T01:44:38.576Z,14.40
2023-08-07T01:47:06.381Z,14.40
2023-08-07T01:49:33.580Z,14.30
2023-08-07T01:52:00.536Z,14.30
2023-08-07T01:54:29.004Z,14.30
2023-08-07T01:56:56.514Z,14.30
2023-08-07T01:59:24.039Z,14.30
2023-08-07T02:01:51.158Z,14.30
2023-08-07T02:04:18.726Z,14.30
2023-08-07T02:06:45.739Z,14.30
2023-08-07T02:09:12.735Z,14.30
2023-08-07T02:11:41.289Z,14.30
2023-08-07T02:14:08.458Z,14.40
2023-08-07T02:16:35.539Z,14.40
2023-08-07T02:19:02.527Z,14.40
2023-08-07T02:21:29.522Z,14.40
2023-08-07T02:23:56.666Z,14.40
2023-08-07T02:26:23.827Z,14.40
2023-08-07T02:28:52.156Z,14.50
2023-08-07T02:31:19.114Z,14.50
2023-08-07T02:33:46.142Z,14.50
2023-08-07T02:36:13.083Z,14.50
2023-08-07T02:38:40.071Z,14.50
2023-08-07T02:41:07.012Z,14.50
2023-08-07T02:43:35.552Z,14.60
2023-08-07T02:46:03.934Z,14.60
2023-08-07T02:48:30.953Z,14.60
2023-08-07T02:50:58.153Z,14.60
2023-08-07T02:53:25.097Z,14.60
2023-08-07T02:55:52.115Z,14.60
2023-08-07T02:58:19.218Z,14.60
2023-08-07T03:00:46.500Z,14.60
2023-08-07T03:03:14.881Z,14.70
2023-08-07T03:05:50.012Z,14.60
2023-08-07T03:08:17.211Z,14.70
2023-08-07T03:10:50.401Z,14.70
2023-08-07T03:13:17.710Z,14.70
2023-08-07T03:15:44.831Z,14.70
2023-08-07T03:18:12.149Z,14.70
2023-08-07T03:20:40.936Z,14.70
2023-08-07T03:23:07.986Z,14.70
2023-08-07T03:25:35.116Z,14.70
2023-08-07T03:28:02.048Z,14.80
2023-08-07T03:30:29.322Z,14.70
2023-08-07T03:32:56.355Z,14.70
2023-08-07T03:35:23.341Z,14.70
2023-08-07T03:37:51.911Z,14.70
2023-08-07T03:40:18.862Z,14.70
2023-08-07T03:42:45.920Z,14.80
2023-08-07T03:45:13.050Z,14.80
2023-08-07T03:47:40.232Z,14.70
2023-08-07T03:50:08.237Z,14.70
2023-08-07T03:52:35.302Z,14.70
2023-08-07T03:55:04.298Z,14.70
2023-08-07T03:57:31.300Z,14.70
2023-08-07T03:59:59.170Z,14.60
2023-08-07T04:02:26.569Z,14.60
2023-08-07T04:04:53.585Z,14.60
2023-08-07T04:07:20.692Z,14.60
2023-08-07T04:09:47.630Z,14.60
2023-08-07T04:12:16.168Z,14.60
2023-08-07T04:14:43.053Z,14.60
2023-08-07T04:17:10.124Z,14.60
2023-08-07T04:19:37.104Z,14.60
2023-08-07T04:22:04.491Z,14.60
2023-08-07T04:24:31.525Z,14.60
2023-08-07T04:26:58.557Z,14.60
2023-08-07T04:29:26.988Z,14.70
2023-08-07T04:31:54.052Z,14.70
2023-08-07T04:34:21.109Z,14.70
2023-08-07T04:36:48.210Z,14.70
2023-08-07T04:39:15.145Z,14.70
2023-08-07T04:41:42.430Z,14.70
2023-08-07T04:44:09.709Z,14.70
2023-08-07T04:46:38.034Z,14.60
2023-08-07T04:49:04.974Z,14.70
2023-08-07T04:51:32.382Z,14.70
2023-08-07T04:53:59.453Z,14.70
2023-08-07T04:56:26.548Z,14.70
2023-08-07T04:58:53.765Z,14.70
2023-08-07T05:01:20.993Z,14.70
2023-08-07T05:03:49.414Z,14.80
2023-08-07T05:06:16.530Z,14.70
2023-08-07T05:08:43.668Z,14.80
2023-08-07T05:11:10.603Z,14.80
2023-08-07T05:13:37.930Z,14.80
2023-08-07T05:16:05.069Z,14.80
2023-08-07T05:18:32.521Z,14.80
2023-08-07T05:21:00.946Z,14.90
2023-08-07T05:23:28.047Z,14.90
2023-08-07T05:25:55.134Z,14.90
2023-08-07T05:28:22.181Z,14.90
2023-08-07T05:30:49.254Z,14.90
2023-08-07T05:33:16.820Z,14.90
2023-08-07T05:35:44.070Z,14.90
2023-08-07T05:38:12.505Z,15.00
2023-08-07T05:40:39.809Z,15.00
2023-08-07T05:43:07.054Z,15.00
2023-08-07T05:45:34.112Z,15.00
2023-08-07T05:48:01.376Z,15.00
2023-08-07T05:50:28.469Z,15.00
2023-08-07T05:52:55.525Z,15.00
2023-08-07T05:55:23.983Z,15.10
2023-08-07T05:57:51.241Z,15.10
2023-08-07T06:00:20.583Z,15.10
2023-08-07T06:02:47.717Z,15.20
2023-08-07T06:05:16.222Z,15.20
2023-08-07T06:07:43.236Z,15.20
2023-08-07T06:10:10.531Z,15.20
2023-08-07T06:12:39.049Z,15.20
2023-08-07T06:15:06.969Z,15.20
2023-08-07T06:17:33.974Z,15.10
2023-08-07T06:20:01.111Z,15.00
2023-08-07T06:22:28.150Z,15.00
2023-08-07T06:24:55.153Z,15.00
2023-08-07T06:27:23.203Z,15.00
2023-08-07T06:29:51.800Z,15.00
2023-08-07T06:32:19.471Z,15.00
2023-08-07T06:34:47.608Z,15.10
2023-08-07T06:37:14.854Z,15.10
2023-08-07T06:39:41.851Z,15.20
2023-08-07T06:42:09.354Z,15.30
2023-08-07T06:44:36.448Z,15.40
2023-08-07T06:47:05.203Z,15.50
2023-08-07T06:49:34.247Z,15.60
2023-08-07T06:52:01.254Z,15.70
2023-08-07T06:54:28.212Z,15.90
2023-08-07T06:56:55.423Z,16.00
2023-08-07T06:59:22.579Z,16.20
2023-08-07T07:01:49.653Z,16.40
2023-08-07T07:04:18.248Z,16.40
2023-08-07T07:06:45.286Z,16.40
2023-08-07T07:09:17.094Z,16.40
2023-08-07T07:11:44.862Z,16.30
2023-08-07T07:14:12.106Z,16.20
2023-08-07T07:16:40.580Z,16.10
2023-08-07T07:19:09.655Z,16.00
2023-08-07T07:21:38.042Z,16.00
2023-08-07T07:24:05.833Z,16.10
2023-08-07T07:26:33.100Z,16.20
2023-08-07T07:29:00.241Z,16.50
2023-08-07T07:31:27.336Z,16.70
2023-08-07T07:33:54.742Z,16.90
2023-08-07T07:36:21.879Z,17.10
2023-08-07T07:38:50.837Z,17.30
2023-08-07T07:41:18.536Z,17.50
2023-08-07T07:43:45.646Z,17.60
2023-08-07T07:46:12.881Z,17.70
2023-08-07T07:48:40.104Z,17.80
2023-08-07T07:51:07.170Z,17.70
2023-08-07T07:53:34.552Z,17.70
2023-08-07T07:56:02.897Z,17.90
2023-08-07T07:58:29.934Z,18.00
2023-08-07T08:00:57.696Z,18.20
2023-08-07T08:03:27.518Z,18.30
2023-08-07T08:05:54.816Z,18.50
2023-08-07T08:08:21.860Z,18.80
2023-08-07T08:10:49.065Z,18.90
2023-08-07T08:13:17.833Z,18.90
2023-08-07T08:15:45.767Z,19.00
2023-08-07T08:18:13.063Z,19.20
2023-08-07T08:20:40.601Z,19.20
2023-08-07T08:23:07.658Z,19.40
2023-08-07T08:25:34.720Z,19.70
2023-08-07T08:28:01.877Z,19.90
2023-08-07T08:30:30.964Z,20.00
2023-08-07T08:32:58.072Z,20.10
2023-08-07T08:35:25.228Z,20.10
2023-08-07T08:37:52.190Z,20.00
2023-08-07T08:40:20.508Z,20.00
2023-08-07T08:42:47.921Z,20.00
2023-08-07T08:45:16.047Z,20.00
2023-08-07T08:47:45.985Z,20.00
2023-08-07T08:50:15.605Z,19.90
2023-08-07T08:52:47.874Z,19.90
2023-08-07T08:55:15.125Z,19.90
2023-08-07T08:57:43.044Z,20.20
2023-08-07T09:00:22.343Z,20.20
2023-08-07T09:02:52.207Z,20.00
2023-08-07T09:05:22.122Z,19.80
2023-08-07T09:07:50.132Z,19.60
2023-08-07T09:10:17.875Z,19.50
2023-08-07T09:12:54.410Z,19.40
2023-08-07T09:15:23.464Z,19.20
2023-08-07T09:17:53.806Z,19.10
2023-08-07T09:20:21.356Z,18.90
2023-08-07T09:22:48.331Z,18.90
2023-08-07T09:25:27.288Z,18.80
2023-08-07T09:27:56.041Z,18.60
2023-08-07T09:30:27.078Z,18.60
2023-08-07T09:32:57.462Z,18.50
2023-08-07T09:35:24.608Z,18.50
2023-08-07T09:37:51.828Z,18.40
2023-08-07T09:40:19.724Z,18.40
2023-08-07T09:42:53.348Z,18.40
2023-08-07T09:45:21.771Z,18.50
2023-08-07T09:48:00.285Z,18.60
2023-08-07T09:50:28.228Z,18.80
2023-08-07T09:52:56.789Z,19.10
2023-08-07T09:55:24.349Z,19.40
2023-08-07T09:57:52.030Z,19.60
2023-08-07T10:00:22.895Z,19.70
2023-08-07T10:02:51.288Z,19.70
2023-08-07T10:05:20.147Z,19.70
2023-08-07T10:07:48.473Z,19.70
2023-08-07T10:10:16.017Z,19.60
2023-08-07T10:12:47.003Z,19.40
2023-08-07T10:15:15.370Z,19.40
2023-08-07T10:17:42.639Z,19.40
2023-08-07T10:20:11.002Z,19.20
2023-08-07T10:22:41.012Z,19.20
2023-08-07T10:25:09.042Z,19.10
2023-08-07T10:27:38.447Z,19.10
2023-08-07T10:30:08.919Z,19.00
2023-08-07T10:32:37.959Z,18.90
2023-08-07T10:35:08.349Z,18.90
2023-08-07T10:37:42.255Z,18.90
2023-08-07T10:40:10.925Z,18.70
2023-08-07T10:43:01.357Z,18.70
2023-08-07T10:45:29.565Z,18.60
2023-08-07T10:48:04.184Z,18.60
2023-08-07T10:50:32.428Z,18.70
2023-08-07T10:53:03.566Z,18.70
2023-08-07T10:55:45.664Z,18.80
2023-08-07T10:58:24.572Z,18.90
2023-08-07T11:00:52.876Z,18.90
2023-08-07T11:03:29.213Z,19.00
2023-08-07T11:06:00.054Z,19.20
2023-08-07T11:08:30.800Z,19.40
2023-08-07T11:11:05.092Z,19.60
2023-08-07T11:13:32.362Z,19.70
2023-08-07T11:16:00.698Z,19.70
2023-08-07T11:18:27.748Z,19.70
2023-08-07T11:20:57.256Z,19.70
2023-08-07T11:23:25.613Z,19.60
2023-08-07T11:25:55.051Z,19.60
2023-08-07T11:28:23.264Z,19.60
2023-08-07T11:30:52.238Z,19.70
2023-08-07T11:33:19.928Z,19.90
2023-08-07T11:35:47.337Z,20.30
2023-08-07T11:38:29.560Z,20.50
2023-08-07T11:41:00.359Z,20.60
2023-08-07T11:43:30.154Z,20.70
2023-08-07T11:46:00.159Z,20.70
2023-08-07T11:48:28.630Z,20.80
2023-08-07T11:50:57.255Z,20.90
2023-08-07T11:53:25.393Z,21.10
2023-08-07T11:55:58.218Z,21.30
2023-08-07T11:58:27.910Z,21.50
2023-08-07T12:00:55.954Z,21.70
2023-08-07T12:03:28.215Z,21.90
2023-08-07T12:05:56.662Z,22.00
2023-08-07T12:08:23.981Z,21.90
2023-08-07T12:10:52.397Z,22.00
2023-08-07T12:13:24.903Z,21.90
2023-08-07T12:15:55.597Z,22.00
2023-08-07T12:18:24.113Z,22.00
2023-08-07T12:20:52.721Z,22.00
2023-08-07T12:23:22.311Z,22.10
2023-08-07T12:25:49.561Z,22.20
2023-08-07T12:28:18.497Z,22.40
2023-08-07T12:30:47.659Z,22.50
2023-08-07T12:33:16.094Z,22.60
2023-08-07T12:35:43.657Z,22.40
2023-08-07T12:38:11.517Z,22.40
2023-08-07T12:40:40.001Z,22.50
2023-08-07T12:43:08.645Z,22.50
2023-08-07T12:48:06.387Z,22.40
2023-08-07T12:50:35.141Z,22.30
2023-08-07T12:53:02.683Z,22.20
2023-08-07T12:55:30.884Z,22.20
2023-08-07T12:57:58.689Z,22.40
2023-08-07T13:00:26.791Z,22.40
2023-08-07T13:02:54.911Z,22.50
2023-08-07T13:05:23.350Z,22.70
2023-08-07T13:07:55.445Z,22.60
2023-08-07T13:10:23.760Z,22.60
2023-08-07T13:12:59.808Z,22.70
2023-08-07T13:15:27.418Z,22.70
2023-08-07T13:17:54.628Z,22.80
2023-08-07T13:20:22.942Z,23.00
2023-08-07T13:22:52.137Z,23.20
2023-08-07T13:25:19.280Z,23.30
2023-08-07T13:27:46.372Z,23.40
2023-08-07T13:30:14.972Z,23.60
2023-08-07T13:32:42.282Z,23.90
2023-08-07T13:35:10.413Z,23.90
2023-08-07T13:37:39.040Z,23.90
2023-08-07T13:40:09.935Z,23.90
2023-08-07T13:42:37.687Z,24.00
2023-08-07T13:45:05.179Z,24.30
2023-08-07T13:47:32.456Z,24.60
2023-08-07T13:49:59.848Z,24.90
2023-08-07T13:52:27.363Z,25.30
2023-08-07T13:54:55.377Z,25.50
2023-08-07T13:57:24.031Z,25.30
2023-08-07T13:59:51.577Z,24.80
2023-08-07T14:02:18.795Z,24.40
2023-08-07T14:04:46.613Z,23.90
2023-08-07T14:07:14.316Z,23.40
2023-08-07T14:09:41.561Z,22.90
2023-08-07T14:12:09.545Z,22.50
2023-08-07T14:14:37.942Z,22.10
2023-08-07T14:17:05.546Z,21.90
2023-08-07T14:19:32.796Z,22.20
2023-08-07T14:21:59.917Z,22.60
2023-08-07T14:24:27.196Z,22.60
2023-08-07T14:26:54.264Z,22.50
2023-08-07T14:29:21.382Z,22.50
2023-08-07T14:31:49.862Z,22.30
2023-08-07T14:34:17.154Z,22.20
2023-08-07T14:36:44.278Z,22.10
2023-08-07T14:39:11.432Z,22.40
2023-08-07T14:41:38.652Z,22.40
2023-08-07T14:44:05.656Z,22.20
2023-08-07T14:46:32.649Z,22.00
2023-08-07T14:49:01.280Z,21.70
2023-08-07T14:51:28.270Z,21.40
2023-08-07T14:53:55.317Z,21.10
2023-08-07T14:56:23.100Z,20.90
2023-08-07T14:58:50.208Z,20.80
2023-08-07T15:01:17.502Z,20.50
2023-08-07T15:03:44.487Z,20.20
2023-08-07T15:06:13.094Z,20.00
2023-08-07T15:08:40.094Z,19.70
2023-08-07T15:11:07.312Z,19.60
2023-08-07T15:13:34.396Z,19.40
2023-08-07T15:16:01.683Z,19.10
2023-08-07T15:18:28.788Z,18.90
2023-08-07T15:20:55.952Z,18.80
2023-08-07T15:23:24.471Z,18.60
2023-08-07T15:25:51.504Z,18.50
2023-08-07T15:28:18.600Z,18.40
2023-08-07T15:30:50.299Z,18.20
2023-08-07T15:33:18.541Z,18.20
2023-08-07T15:35:45.806Z,18.20
2023-08-07T15:38:12.928Z,18.20
2023-08-07T15:40:42.290Z,18.40
2023-08-07T15:43:11.135Z,18.60
2023-08-07T15:45:38.657Z,18.70
2023-08-07T15:48:06.749Z,18.80
2023-08-07T15:50:37.938Z,18.80
2023-08-07T15:53:05.533Z,18.80
2023-08-07T15:55:35.090Z,18.80
2023-08-07T15:58:04.163Z,18.80
2023-08-07T16:00:34.979Z,18.80
2023-08-07T16:03:02.952Z,18.80
2023-08-07T16:05:29.951Z,18.80
2023-08-07T16:07:57.063Z,18.90
2023-08-07T16:10:26.280Z,19.10
2023-08-07T16:12:54.084Z,19.20
2023-08-07T16:15:23.615Z,19.40
2023-08-07T16:17:51.077Z,19.40
2023-08-07T16:20:18.471Z,19.50
2023-08-07T16:22:45.526Z,19.60
2023-08-07T16:25:12.730Z,19.70
2023-08-07T16:27:41.005Z,19.90
2023-08-07T16:30:08.917Z,20.00
2023-08-07T16:32:39.449Z,20.10
2023-08-07T16:35:07.639Z,20.30
2023-08-07T16:37:35.361Z,20.30
2023-08-07T16:40:02.681Z,20.40
2023-08-07T16:42:29.801Z,20.30
2023-08-07T16:44:56.757Z,20.20
2023-08-07T16:47:23.964Z,20.20
2023-08-07T16:49:52.731Z,20.20
2023-08-07T16:52:19.849Z,20.30
2023-08-07T16:54:49.483Z,20.30
2023-08-07T16:57:16.719Z,20.30
2023-08-07T16:59:43.729Z,20.30
2023-08-07T17:02:11.039Z,20.40
2023-08-07T17:04:39.065Z,20.40
2023-08-07T17:07:07.756Z,20.40
2023-08-07T17:09:35.295Z,20.50
2023-08-07T17:12:03.282Z,20.40
2023-08-07T17:14:30.534Z,20.40
2023-08-07T17:16:57.962Z,20.40
2023-08-07T17:19:25.230Z,20.40
2023-08-07T17:21:52.326Z,20.40
2023-08-07T17:24:20.931Z,20.40
2023-08-07T17:26:48.033Z,20.30
2023-08-07T17:29:15.390Z,20.30
2023-08-07T17:31:42.517Z,20.20
2023-08-07T17:34:09.645Z,20.10
2023-08-07T17:36:37.008Z,20.00
2023-08-07T17:39:04.484Z,19.90
2023-08-07T17:41:32.829Z,19.80
2023-08-07T17:43:59.903Z,19.70
2023-08-07T17:46:27.048Z,19.50
2023-08-07T17:48:54.061Z,19.40
2023-08-07T17:51:21.313Z,19.40
2023-08-07T17:53:48.706Z,19.30
2023-08-07T17:56:15.808Z,19.20
2023-08-07T17:58:44.364Z,19.10
2023-08-07T18:01:11.503Z,19.10
2023-08-07T18:03:38.578Z,18.90
2023-08-07T18:06:05.671Z,18.90
2023-08-07T18:08:33.963Z,18.80
2023-08-07T18:11:01.242Z,18.70
2023-08-07T18:13:28.280Z,18.70
2023-08-07T18:15:56.801Z,18.60
2023-08-07T18:18:23.955Z,18.60
2023-08-07T18:20:51.289Z,18.60
2023-08-07T18:23:18.778Z,18.50
2023-08-07T18:25:45.999Z,18.40
2023-08-07T18:28:13.070Z,18.40
2023-08-07T18:30:40.221Z,18.30
2023-08-07T18:33:08.973Z,18.30
2023-08-07T18:35:36.298Z,18.20
2023-08-07T18:38:03.480Z,18.10
2023-08-07T18:40:30.472Z,18.10
2023-08-07T18:42:57.681Z,18.00
2023-08-07T18:45:25.057Z,18.00
2023-08-07T18:47:52.452Z,17.90
2023-08-07T18:50:21.210Z,17.90
2023-08-07T18:52:48.292Z,17.80
2023-08-07T18:55:15.458Z,17.70
2023-08-07T18:57:43.053Z,17.70
2023-08-07T19:00:10.931Z,17.60
2023-08-07T19:02:39.000Z,17.50
2023-08-07T19:05:07.838Z,17.50
2023-08-07T19:07:38.115Z,17.40
2023-08-07T19:10:07.068Z,17.40
2023-08-07T19:12:34.194Z,17.30
2023-08-07T19:15:02.462Z,17.20
2023-08-07T19:17:34.523Z,17.20
2023-08-07T19:20:01.676Z,17.20
2023-08-07T19:22:28.802Z,17.10
2023-08-07T19:24:58.757Z,17.00
2023-08-07T19:27:25.816Z,17.00
2023-08-07T19:29:54.720Z,16.90
2023-08-07T19:32:21.909Z,16.90
2023-08-07T19:34:49.060Z,16.90
2023-08-07T19:37:16.095Z,16.90
2023-08-07T19:39:43.328Z,16.90
2023-08-07T19:42:11.723Z,16.90
2023-08-07T19:44:39.025Z,16.80
2023-08-07T19:47:06.657Z,16.80
2023-08-07T19:49:33.796Z,16.70
2023-08-07T19:52:02.118Z,16.70
2023-08-07T19:54:29.112Z,16.60
2023-08-07T19:56:56.669Z,16.60
2023-08-07T19:59:25.458Z,16.60
2023-08-07T20:01:52.591Z,16.50
2023-08-07T20:04:19.678Z,16.50
2023-08-07T20:06:47.090Z,16.50
2023-08-07T20:09:14.195Z,16.40
2023-08-07T20:11:42.396Z,16.40
2023-08-07T20:14:09.490Z,16.40
2023-08-07T20:16:38.084Z,16.30
2023-08-07T20:19:05.233Z,16.30
2023-08-07T20:21:32.526Z,16.20
2023-08-07T20:23:59.653Z,16.10
2023-08-07T20:26:26.657Z,16.00
2023-08-07T20:28:56.218Z,16.00
2023-08-07T20:31:23.245Z,15.90
2023-08-07T20:33:51.808Z,15.90
2023-08-07T20:36:19.187Z,15.90
2023-08-07T20:38:46.193Z,15.80
2023-08-07T20:41:13.569Z,15.80
2023-08-07T20:43:40.655Z,15.80
2023-08-07T20:46:09.223Z,15.80
2023-08-07T20:48:36.776Z,15.90
2023-08-07T20:51:06.254Z,15.80
2023-08-07T20:53:33.520Z,15.80
2023-08-07T20:56:00.535Z,15.80
2023-08-07T20:58:27.645Z,15.80
2023-08-07T21:00:58.019Z,15.70
2023-08-07T21:03:25.395Z,15.70
2023-08-07T21:05:52.456Z,15.70
2023-08-07T21:08:20.977Z,15.70
2023-08-07T21:10:48.103Z,15.70
2023-08-07T21:13:15.228Z,15.70
2023-08-07T21:15:43.787Z,15.70
2023-08-07T21:18:11.069Z,15.70
2023-08-07T21:20:38.197Z,15.70
2023-08-07T21:23:05.709Z,15.70
2023-08-07T21:25:34.332Z,15.70
2023-08-07T21:28:01.240Z,15.70
2023-08-07T21:30:28.240Z,15.70
2023-08-07T21:32:55.479Z,15.80
2023-08-07T21:35:22.568Z,15.80
2023-08-07T21:37:49.840Z,15.80
2023-08-07T21:40:16.985Z,15.80
2023-08-07T21:42:45.721Z,15.80
2023-08-07T21:45:12.731Z,15.80
2023-08-07T21:47:44.384Z,15.80
2023-08-07T21:50:11.539Z,15.90
2023-08-07T21:52:38.721Z,15.80
2023-08-07T21:55:07.214Z,15.80
2023-08-07T21:57:34.624Z,15.90
2023-08-07T22:00:06.791Z,15.90
2023-08-07T22:02:33.879Z,15.90
2023-08-07T22:05:00.994Z,15.90
2023-08-07T22:07:28.372Z,15.80
2023-08-07T22:09:55.404Z,15.80
2023-08-07T22:12:22.430Z,15.80
2023-08-07T22:14:49.364Z,15.80
2023-08-07T22:17:18.165Z,15.80
2023-08-07T22:19:51.709Z,15.80
2023-08-07T22:22:30.212Z,15.80
2023-08-07T22:24:57.197Z,15.80
2023-08-07T22:27:24.209Z,15.80
2023-08-07T22:29:51.500Z,15.70
2023-08-07T22:32:20.093Z,15.80
2023-08-07T22:34:47.199Z,15.70
2023-08-07T22:37:14.220Z,15.70
2023-08-07T22:39:41.265Z,15.70
2023-08-07T22:42:08.692Z,15.80
2023-08-07T22:44:36.016Z,15.70
2023-08-07T22:47:03.515Z,15.80
2023-08-07T22:49:32.172Z,15.80
2023-08-07T22:51:59.301Z,15.80
2023-08-07T22:54:26.683Z,15.80
2023-08-07T22:56:53.756Z,15.80
2023-08-07T22:59:20.769Z,15.80
2023-08-07T23:01:47.949Z,15.80
2023-08-07T23:04:15.074Z,15.80
2023-08-07T23:06:43.576Z,15.80
2023-08-07T23:09:10.668Z,15.80
2023-08-07T23:11:37.878Z,15.80
2023-08-07T23:14:04.889Z,15.80
2023-08-07T23:16:31.833Z,15.80
2023-08-07T23:18:58.786Z,15.80
2023-08-07T23:21:25.809Z,15.80
2023-08-07T23:23:54.198Z,15.80
2023-08-07T23:26:21.256Z,15.80
2023-08-07T23:28:48.605Z,15.90
2023-08-07T23:31:16.607Z,15.90
2023-08-07T23:33:44.232Z,15.90
2023-08-07T23:36:11.420Z,15.90
2023-08-07T23:38:38.397Z,15.90
2023-08-07T23:41:06.784Z,15.90
2023-08-07T23:43:34.361Z,15.90
2023-08-07T23:46:02.256Z,15.90
2023-08-07T23:48:29.456Z,16.00
2023-08-07T23:50:56.798Z,16.00
2023-08-07T23:53:24.199Z,16.00
2023-08-07T23:55:51.209Z,16.00
2023-08-07T23:58:21.730Z,16.00
